WetterOnline ( https://www.wetteronline.de )

Wetter aktuell Ilkahöhe

Aktuelles Wetter: Hohenpeißenberg (986m)

6-stündlich | Neueste Meldungen
Ortszeit Temperatur Wetter
Sa, 20.07. 14:00 24.5° C leicht bewölkt
Sa, 20.07. 8:00 18.4° C bedeckt
Sa, 20.07. 2:00 20.2° C bewölkt
Fr, 19.07. 20:00 22.4° C wolkig
Fr, 19.07. 14:00 24.4° C wolkig
Fr, 19.07. 8:00 20.9° C wolkenlos
Fr, 19.07. 2:00 19.2° C wolkenlos
Do, 18.07. 20:00 21.4° C wolkenlos
Ortszeit Temperatur Wetter
Sa, 20.07. 17:00 26.1° C fast wolkenlos
Sa, 20.07. 16:50 26.1° C fast wolkenlos
Sa, 20.07. 16:40 25.8° C leicht bewölkt
Sa, 20.07. 16:30 23.9° C wolkig
Sa, 20.07. 16:20 23.9° C wolkig
Sa, 20.07. 16:10 23.2° C wolkig
Sa, 20.07. 16:00 24.4° C wolkig
Sa, 20.07. 15:30 25.1° C leicht bewölkt
Sa, 20.07. 15:00 24.8° C leicht bewölkt
Sa, 20.07. 14:30 24.8° C wolkenlos
Sa, 20.07. 14:00 24.5° C leicht bewölkt
Ortszeit Relative Feuchte Sichtweite
Sa, 20.07. 14:00 60% 55 km
Sa, 20.07. 8:00 73% 50 km
Sa, 20.07. 2:00 63% 45 km
Fr, 19.07. 20:00 59% 45 km
Fr, 19.07. 14:00 58% 65 km
Fr, 19.07. 8:00 77% 40 km
Fr, 19.07. 2:00 75% 50 km
Do, 18.07. 20:00 70% 45 km
Ortszeit Relative Feuchte Sichtweite
Sa, 20.07. 17:00 54% 50 km
Sa, 20.07. 16:50 54% -
Sa, 20.07. 16:40 55% -
Sa, 20.07. 16:30 55% 35 km
Sa, 20.07. 16:20 55% -
Sa, 20.07. 16:10 57% -
Sa, 20.07. 16:00 52% 35 km
Sa, 20.07. 15:30 56% 45 km
Sa, 20.07. 15:00 52% 40 km
Sa, 20.07. 14:30 57% 45 km
Sa, 20.07. 14:00 60% 55 km
Ortszeit Niederschlagsmenge Niederschlagsart
Sa, 20.07. 14:00 0.0 l/m2 in 6 Std. -
Sa, 20.07. 8:00 0.1 l/m2 in 12 Std. -
Sa, 20.07. 2:00 0.1 l/m2 in 6 Std. Regen
Fr, 19.07. 20:00 0.1 l/m2 in 12 Std. -
Fr, 19.07. 14:00 0.1 l/m2 in 6 Std. Regen
Fr, 19.07. 8:00 0.0 l/m2 in 12 Std. -
Fr, 19.07. 2:00 0.0 l/m2 in 6 Std. -
Do, 18.07. 20:00 0.0 l/m2 in 12 Std. -
Ortszeit Niederschlagsmenge Niederschlagsart
Sa, 20.07. 17:00 0.0 l/m2 in 1 Std. -
Sa, 20.07. 16:50 keine Meldung -
Sa, 20.07. 16:40 keine Meldung -
Sa, 20.07. 16:30 0.0 l/m2 in 30 Min -
Sa, 20.07. 16:20 keine Meldung -
Sa, 20.07. 16:10 keine Meldung -
Sa, 20.07. 16:00 0.0 l/m2 in 1 Std. -
Sa, 20.07. 15:30 0.0 l/m2 in 30 Min -
Sa, 20.07. 15:00 0.0 l/m2 in 1 Std. -
Sa, 20.07. 14:30 0.0 l/m2 in 30 Min -
Sa, 20.07. 14:00 0.0 l/m2 in 1 Std. -
Ortszeit Stärke Spitze Richtung
km/h Bft. km/h Grad Sektor
Sa, 20.07. 14:00 11 2 29 230° SW
Sa, 20.07. 8:00 7 2 18 240° SW
Sa, 20.07. 2:00 7 2 24 340° N
Fr, 19.07. 20:00 13 3 22 40° NO
Fr, 19.07. 14:00 7 2 18 10° N
Fr, 19.07. 8:00 4 1 18 70° O
Fr, 19.07. 2:00 13 3 22 70° O
Do, 18.07. 20:00 9 2 26 30° NO
Ortszeit Stärke Spitze Richtung
km/h Bft. km/h Grad Sektor
Sa, 20.07. 17:00 7 2 14 250° W
Sa, 20.07. 16:50 7 2 - 250° W
Sa, 20.07. 16:40 4 1 - 230° SW
Sa, 20.07. 16:30 6 1 13 320° NW
Sa, 20.07. 16:20 6 1 - 320° NW
Sa, 20.07. 16:10 6 1 - 330° NW
Sa, 20.07. 16:00 7 2 22 310° NW
Sa, 20.07. 15:30 6 1 22 240° SW
Sa, 20.07. 15:00 11 2 29 250° W
Sa, 20.07. 14:30 11 2 22 230° SW
Sa, 20.07. 14:00 11 2 29 230° SW
Ortszeit Untergrenze Bedeckung Gattung
total tief tief mittel hoch
Sa, 20.07. 14:00 4500 m 4/8 4/8 - - -
Sa, 20.07. 8:00 3000 m 8/8 8/8 - - -
Sa, 20.07. 2:00 2400 m 8/8 7/8 - - -
Fr, 19.07. 20:00 1500 m 8/8 2/8 - - -
Fr, 19.07. 14:00 1110 m 7/8 2/8 - - -
Fr, 19.07. 8:00 - 0/8 0/8 - - -
Fr, 19.07. 2:00 - 0/8 0/8 - - -
Do, 18.07. 20:00 - 0/8 0/8 - - -
Ortszeit Bedeckungsgrad in Achtel und Wolkenuntergrenze
Sa, 20.07. 17:00 1(1500m)
Sa, 20.07. 16:50 1(1500m)
Sa, 20.07. 16:40 2
Sa, 20.07. 16:30 2(1260m) 3(1500m) 6(2400m)
Sa, 20.07. 16:20 2(1260m) 3(1500m) 6(2400m)
Sa, 20.07. 16:10 6
Sa, 20.07. 16:00 6(1290m) 6(1500m)
Sa, 20.07. 15:30 3(1260m) 3(1800m)
Sa, 20.07. 15:00 1(1140m) 3(1800m)
Sa, 20.07. 14:30 keine Wolken
Sa, 20.07. 14:00 4(4500m)
Ortszeit Stationsdruck (hPa) Tendenz (hPa in 3 Std.)
Sa, 20.07. 14:00 903 - 0,9
Sa, 20.07. 8:00 904 - 0,6
Sa, 20.07. 2:00 905 - 1,6
Fr, 19.07. 20:00 907 - 0,2
Fr, 19.07. 14:00 909 - 0,6
Fr, 19.07. 8:00 910 + 0,2
Fr, 19.07. 2:00 910 - 0,4
Do, 18.07. 20:00 910 - 0,1
Ortszeit Stationsdruck (hPa) Tendenz (hPa in 3 Std.)
Sa, 20.07. 17:00 902 - 1,2
Sa, 20.07. 16:50 902 keine Meldung
Sa, 20.07. 16:40 902 keine Meldung
Sa, 20.07. 16:30 902 - 1,2
Sa, 20.07. 16:20 902 keine Meldung
Sa, 20.07. 16:10 902 keine Meldung
Sa, 20.07. 16:00 902 - 1,3
Sa, 20.07. 15:30 902 - 1,4
Sa, 20.07. 15:00 903 - 1,1
Sa, 20.07. 14:30 903 - 1,0
Sa, 20.07. 14:00 903 - 0,9
Ortszeit Schneehöhe (cm)
Sa, 20.07. 14:00 0
Sa, 20.07. 8:00 0
Sa, 20.07. 2:00 0
Fr, 19.07. 20:00 0
Fr, 19.07. 14:00 0
Fr, 19.07. 8:00 0
Fr, 19.07. 2:00 0
Do, 18.07. 20:00 0
Ortszeit Schneehöhe (cm)
Sa, 20.07. 17:00 0
Sa, 20.07. 16:50 0
Sa, 20.07. 16:40 -
Sa, 20.07. 16:30 0
Sa, 20.07. 16:20 0
Sa, 20.07. 16:10 -
Sa, 20.07. 16:00 0
Sa, 20.07. 15:30 0
Sa, 20.07. 15:00 0
Sa, 20.07. 14:30 0
Sa, 20.07. 14:00 0
Link zu dieser Seite / Seite empfehlen

Das Wetter in ...